createdAt,value
2019-03-15T00:02:42.328Z,3.54
2019-03-15T00:05:11.780Z,3.54
2019-03-15T00:07:41.343Z,3.58
2019-03-15T00:10:10.790Z,3.58
2019-03-15T00:12:40.685Z,3.59
2019-03-15T00:15:10.286Z,3.59
2019-03-15T00:17:39.911Z,3.59
2019-03-15T00:20:30.371Z,3.57
2019-03-15T00:23:11.491Z,3.54
2019-03-15T00:25:41.016Z,3.57
2019-03-15T00:28:10.455Z,3.54
2019-03-15T00:30:44.746Z,3.55
2019-03-15T00:33:14.113Z,3.53
2019-03-15T00:35:43.822Z,3.53
2019-03-15T00:38:32.170Z,3.54
2019-03-15T00:41:01.555Z,3.54
2019-03-15T00:43:31.159Z,3.57
2019-03-15T00:48:35.572Z,3.61
2019-03-15T00:51:05.344Z,3.63
2019-03-15T00:53:34.986Z,3.64
2019-03-15T00:56:04.429Z,3.64
2019-03-15T00:58:33.821Z,3.65
2019-03-15T01:01:04.494Z,3.67
2019-03-15T01:03:33.858Z,3.70
2019-03-15T01:06:03.283Z,3.73
2019-03-15T01:08:32.752Z,3.72
2019-03-15T01:11:02.372Z,3.73
2019-03-15T01:13:50.796Z,3.73
2019-03-15T01:16:20.196Z,3.75
2019-03-15T01:18:49.599Z,3.79
2019-03-15T01:21:38.067Z,3.85
2019-03-15T01:24:09.062Z,3.85
2019-03-15T01:26:41.099Z,3.87
2019-03-15T01:31:46.113Z,3.87
2019-03-15T01:34:27.052Z,3.86
2019-03-15T01:37:07.803Z,3.85
2019-03-15T01:39:37.284Z,3.85
2019-03-15T01:42:06.656Z,3.85
2019-03-15T01:44:36.070Z,3.86
2019-03-15T01:47:05.462Z,3.85
2019-03-15T01:49:35.185Z,3.84
2019-03-15T01:52:23.788Z,3.82
2019-03-15T01:58:05.993Z,3.94
2019-03-15T02:00:35.927Z,3.94
2019-03-15T02:03:05.307Z,3.98
2019-03-15T02:08:10.072Z,3.98
2019-03-15T02:10:59.155Z,4.03
2019-03-15T02:13:40.379Z,4.07
2019-03-15T02:16:09.984Z,4.07
2019-03-15T02:18:58.378Z,4.13
2019-03-15T02:21:40.091Z,4.13
2019-03-15T02:24:09.617Z,4.15
2019-03-15T02:26:39.215Z,4.16
2019-03-15T02:29:08.628Z,4.13
2019-03-15T02:34:27.347Z,4.19
2019-03-15T02:37:17.425Z,4.19
2019-03-15T02:39:46.847Z,4.19
2019-03-15T02:42:16.229Z,4.21
2019-03-15T02:44:45.625Z,4.25
2019-03-15T02:47:15.036Z,4.21
2019-03-15T02:49:44.424Z,4.27
2019-03-15T02:52:32.889Z,4.26
2019-03-15T02:55:02.410Z,4.26
2019-03-15T03:00:22.527Z,4.30
2019-03-15T03:02:51.954Z,4.38
2019-03-15T03:05:21.378Z,4.37
2019-03-15T03:07:51.116Z,4.39
2019-03-15T03:10:22.163Z,4.41
2019-03-15T03:12:51.554Z,4.44
2019-03-15T03:15:21.606Z,4.46
2019-03-15T03:17:50.956Z,4.48
2019-03-15T03:20:21.204Z,4.48
2019-03-15T03:23:01.932Z,4.43
2019-03-15T03:25:33.630Z,4.48
2019-03-15T03:28:03.024Z,4.46
2019-03-15T03:30:32.481Z,4.45
2019-03-15T03:33:03.963Z,4.45
2019-03-15T03:35:33.397Z,4.46
2019-03-15T03:38:03.034Z,4.46
2019-03-15T03:40:51.659Z,4.48
2019-03-15T03:43:21.620Z,4.52
2019-03-15T03:46:29.016Z,4.55
2019-03-15T03:48:58.459Z,4.56
2019-03-15T03:51:27.854Z,4.53
2019-03-15T03:53:57.312Z,4.48
2019-03-15T03:56:26.855Z,4.49
2019-03-15T03:58:56.365Z,4.46
2019-03-15T04:01:25.783Z,4.46
2019-03-15T04:03:55.245Z,4.41
2019-03-15T04:06:24.821Z,4.50
2019-03-15T04:11:54.801Z,4.53
2019-03-15T04:14:16.670Z,4.53
2019-03-15T04:16:46.241Z,4.47
2019-03-15T04:19:15.751Z,4.55
2019-03-15T04:22:04.453Z,4.55
2019-03-15T04:24:33.979Z,4.56
2019-03-15T04:27:03.385Z,4.56
2019-03-15T04:29:51.825Z,4.56
2019-03-15T04:32:21.371Z,4.56
2019-03-15T04:34:50.785Z,4.56
2019-03-15T04:37:22.758Z,4.53
2019-03-15T04:39:51.274Z,4.53
2019-03-15T04:42:27.845Z,4.53
2019-03-15T04:44:57.437Z,4.54
2019-03-15T04:47:26.974Z,4.56
2019-03-15T04:52:31.558Z,4.57
2019-03-15T04:55:12.546Z,4.60
2019-03-15T05:00:17.625Z,4.64
2019-03-15T05:02:47.077Z,4.68
2019-03-15T05:05:16.456Z,4.70
2019-03-15T05:07:46.065Z,4.74
2019-03-15T05:10:34.442Z,4.77
2019-03-15T05:13:04.262Z,4.80
2019-03-15T05:15:33.805Z,4.79
2019-03-15T05:18:03.219Z,4.78
2019-03-15T05:20:32.583Z,4.75
2019-03-15T05:23:02.222Z,4.78
2019-03-15T05:25:31.799Z,4.78
2019-03-15T05:28:01.387Z,4.80
2019-03-15T05:30:52.093Z,4.82
2019-03-15T05:33:21.661Z,4.84
2019-03-15T05:35:51.142Z,4.83
2019-03-15T05:38:20.685Z,4.84
2019-03-15T05:40:50.062Z,4.83
2019-03-15T05:43:19.522Z,4.86
2019-03-15T05:45:48.968Z,4.86
2019-03-15T05:48:18.415Z,4.91
2019-03-15T05:51:07.019Z,4.87
2019-03-15T05:53:36.440Z,4.90
2019-03-15T05:58:50.386Z,4.97
2019-03-15T06:01:20.023Z,4.99
2019-03-15T06:06:37.849Z,5.06
2019-03-15T06:09:07.639Z,5.07
2019-03-15T06:11:37.042Z,5.08
2019-03-15T06:14:07.010Z,5.09
2019-03-15T06:16:36.444Z,5.08
2019-03-15T06:19:05.870Z,5.08
2019-03-15T06:21:35.426Z,5.08
2019-03-15T06:24:04.892Z,5.08
2019-03-15T06:26:53.386Z,5.08
2019-03-15T06:29:44.063Z,5.11
2019-03-15T06:32:13.487Z,5.15
2019-03-15T06:34:43.524Z,5.20
2019-03-15T06:37:17.873Z,5.24
2019-03-15T06:39:47.290Z,5.26
2019-03-15T06:42:16.692Z,5.25
2019-03-15T06:44:57.459Z,5.25
2019-03-15T06:47:17.345Z,5.24
2019-03-15T06:49:47.304Z,5.23
2019-03-15T06:54:53.172Z,5.27
2019-03-15T06:57:22.629Z,5.29
2019-03-15T06:59:52.011Z,5.28
2019-03-15T07:02:21.416Z,5.27
2019-03-15T07:04:51.330Z,5.27
2019-03-15T07:07:39.796Z,5.28
2019-03-15T07:10:11.321Z,5.29
2019-03-15T07:12:40.868Z,5.31
2019-03-15T07:15:15.492Z,5.30
2019-03-15T07:17:47.159Z,5.33
2019-03-15T07:23:12.012Z,5.46
2019-03-15T07:25:41.479Z,5.47
2019-03-15T07:28:11.045Z,5.51
2019-03-15T07:30:40.526Z,5.61
2019-03-15T07:33:10.074Z,5.66
2019-03-15T07:35:39.609Z,5.70
2019-03-15T07:38:09.292Z,5.76
2019-03-15T07:40:38.636Z,5.79
2019-03-15T07:43:08.030Z,5.88
2019-03-15T07:45:37.505Z,5.93
2019-03-15T07:48:06.899Z,6.02
2019-03-15T07:50:36.310Z,6.17
2019-03-15T07:53:05.772Z,6.31
2019-03-15T07:55:35.222Z,6.39
2019-03-15T07:58:04.612Z,6.46
2019-03-15T08:00:34.117Z,6.51
2019-03-15T08:03:04.534Z,6.54
2019-03-15T08:05:33.958Z,6.56
2019-03-15T08:08:03.401Z,6.57
2019-03-15T08:10:32.866Z,6.60
2019-03-15T08:13:02.299Z,6.61
2019-03-15T08:15:33.140Z,6.61
2019-03-15T08:20:57.921Z,6.70
2019-03-15T08:23:27.681Z,6.76
2019-03-15T08:25:57.240Z,6.83
2019-03-15T08:28:27.416Z,6.82
2019-03-15T08:30:57.048Z,6.72
2019-03-15T08:33:26.713Z,6.66
2019-03-15T08:35:56.272Z,6.67
2019-03-15T08:38:28.607Z,6.66
2019-03-15T08:40:57.980Z,6.59
2019-03-15T08:43:27.398Z,6.58
2019-03-15T08:45:56.952Z,6.59
2019-03-15T08:51:26.242Z,6.72
2019-03-15T08:56:33.393Z,6.73
2019-03-15T09:01:43.966Z,6.69
2019-03-15T09:04:13.355Z,6.63
2019-03-15T09:06:43.467Z,6.63
2019-03-15T09:09:13.128Z,6.67
2019-03-15T09:12:03.151Z,6.72
2019-03-15T09:14:32.573Z,6.78
2019-03-15T09:17:01.986Z,6.81
2019-03-15T09:19:31.402Z,6.82
2019-03-15T09:22:15.488Z,6.82
2019-03-15T09:24:32.400Z,6.88
2019-03-15T09:27:01.904Z,6.94
2019-03-15T09:29:31.372Z,6.98
2019-03-15T09:32:08.728Z,7.03
2019-03-15T09:34:42.469Z,7.06
2019-03-15T09:40:00.645Z,7.08
2019-03-15T09:42:48.956Z,7.05
2019-03-15T09:45:18.698Z,7.06
2019-03-15T09:48:07.066Z,7.15
2019-03-15T09:50:50.481Z,7.24
2019-03-15T09:53:19.308Z,7.28
2019-03-15T09:55:51.230Z,7.36
2019-03-15T09:58:20.646Z,7.42
2019-03-15T10:03:38.475Z,7.56
2019-03-15T10:06:14.728Z,7.53
2019-03-15T10:08:54.133Z,7.56
2019-03-15T10:11:10.340Z,7.56
2019-03-15T10:13:39.999Z,7.47
2019-03-15T10:16:09.394Z,7.44
2019-03-15T10:21:13.921Z,7.47
2019-03-15T10:23:43.507Z,7.58
2019-03-15T10:26:14.964Z,7.70
2019-03-15T10:28:44.921Z,7.71
2019-03-15T10:31:14.358Z,7.67
2019-03-15T10:33:50.771Z,7.60
2019-03-15T10:36:17.301Z,7.53
2019-03-15T10:38:46.893Z,7.40
2019-03-15T10:41:16.311Z,7.30
2019-03-15T10:43:45.707Z,7.24
2019-03-15T10:46:15.228Z,7.20
2019-03-15T10:49:03.699Z,7.17
2019-03-15T10:51:33.307Z,7.10
2019-03-15T10:56:58.348Z,7.06
2019-03-15T10:59:27.954Z,7.07
2019-03-15T11:01:57.375Z,7.09
2019-03-15T11:04:27.001Z,7.08
2019-03-15T11:06:56.411Z,7.07
2019-03-15T11:09:25.920Z,7.11
2019-03-15T11:11:55.362Z,7.15
2019-03-15T11:14:26.933Z,7.20
2019-03-15T11:16:56.379Z,7.20
2019-03-15T11:19:25.916Z,7.21
2019-03-15T11:21:55.345Z,7.20
2019-03-15T11:24:26.498Z,7.21
2019-03-15T11:29:31.113Z,7.20
2019-03-15T11:32:00.650Z,7.18
2019-03-15T11:34:48.918Z,7.20
2019-03-15T11:37:18.513Z,7.21
2019-03-15T11:39:47.939Z,7.08
2019-03-15T11:42:17.381Z,7.06
2019-03-15T11:47:22.024Z,7.17
2019-03-15T11:49:51.587Z,7.26
2019-03-15T11:52:21.028Z,7.32
2019-03-15T11:54:50.446Z,7.49
2019-03-15T11:57:32.352Z,7.70
2019-03-15T12:00:02.198Z,7.87
2019-03-15T12:02:32.193Z,8.02
2019-03-15T12:05:01.724Z,8.14
2019-03-15T12:07:50.122Z,8.15
2019-03-15T12:10:19.649Z,8.10
2019-03-15T12:12:49.039Z,8.04
2019-03-15T12:15:18.496Z,8.07
2019-03-15T12:17:48.029Z,8.11
2019-03-15T12:20:36.797Z,8.14
2019-03-15T12:23:17.568Z,8.11
2019-03-15T12:25:49.541Z,7.95
2019-03-15T12:28:18.943Z,7.80
2019-03-15T12:30:48.421Z,7.68
2019-03-15T12:33:17.948Z,7.54
2019-03-15T12:35:47.372Z,7.40
2019-03-15T12:38:16.834Z,7.29
2019-03-15T12:40:51.531Z,7.17
2019-03-15T12:43:21.024Z,7.08
2019-03-15T12:45:52.202Z,6.99
2019-03-15T12:48:21.589Z,6.99
2019-03-15T12:50:54.138Z,6.99
2019-03-15T12:53:23.611Z,6.98
2019-03-15T12:56:10.903Z,7.00
2019-03-15T12:58:39.198Z,6.98
2019-03-15T13:01:09.083Z,6.97
2019-03-15T13:03:38.605Z,6.98
2019-03-15T13:06:07.987Z,6.99
2019-03-15T13:08:37.451Z,6.95
2019-03-15T13:11:11.462Z,6.96
2019-03-15T13:13:41.068Z,6.92
2019-03-15T13:16:12.533Z,6.92
2019-03-15T13:21:20.580Z,6.86
2019-03-15T13:26:44.088Z,6.93
2019-03-15T13:29:13.805Z,7.00
2019-03-15T13:31:45.928Z,7.07
2019-03-15T13:34:15.375Z,7.11
2019-03-15T13:36:45.217Z,7.11
2019-03-15T13:39:14.628Z,7.10
2019-03-15T13:41:46.956Z,7.07
2019-03-15T13:44:16.403Z,7.02
2019-03-15T13:46:45.921Z,7.02
2019-03-15T13:49:34.429Z,6.94
2019-03-15T13:52:04.356Z,6.83
2019-03-15T13:54:33.791Z,6.65
2019-03-15T13:57:03.229Z,6.55
2019-03-15T13:59:32.629Z,6.54
2019-03-15T14:02:07.655Z,6.57
2019-03-15T14:04:55.542Z,6.58
2019-03-15T14:10:19.906Z,6.63
2019-03-15T14:12:49.363Z,6.65
2019-03-15T14:15:18.887Z,6.63
2019-03-15T14:17:48.524Z,6.66
2019-03-15T14:20:20.444Z,6.73
2019-03-15T14:23:09.487Z,6.78
2019-03-15T14:25:51.044Z,6.84
2019-03-15T14:28:20.493Z,6.87
2019-03-15T14:30:50.111Z,6.91
2019-03-15T14:33:19.675Z,6.97
2019-03-15T14:43:45.130Z,7.03
2019-03-15T14:46:14.850Z,7.09
2019-03-15T14:49:03.500Z,7.15
2019-03-15T14:54:46.666Z,7.22
2019-03-15T14:57:16.510Z,7.22
2019-03-15T14:59:46.139Z,7.20
2019-03-15T15:02:16.002Z,7.20
2019-03-15T15:04:45.586Z,7.18
2019-03-15T15:07:18.491Z,7.11
2019-03-15T15:12:23.311Z,7.12
2019-03-15T15:14:52.743Z,7.13
2019-03-15T15:17:24.471Z,7.15
2019-03-15T15:20:08.224Z,7.08
2019-03-15T15:25:21.727Z,6.98
2019-03-15T15:33:21.907Z,6.89
2019-03-15T15:35:54.308Z,6.95
2019-03-15T15:44:09.112Z,7.00
2019-03-15T15:46:46.213Z,7.01
2019-03-15T15:49:15.933Z,6.98
2019-03-15T15:51:47.511Z,6.92
2019-03-15T15:54:17.259Z,6.94
2019-03-15T15:56:46.724Z,6.98
2019-03-15T15:59:16.144Z,7.00
2019-03-15T16:01:45.572Z,7.00
2019-03-15T16:04:14.973Z,6.99
2019-03-15T16:06:44.347Z,6.95
2019-03-15T16:09:13.914Z,6.91
2019-03-15T16:11:43.805Z,6.87
2019-03-15T16:14:13.542Z,6.81
2019-03-15T16:16:43.311Z,6.76
2019-03-15T16:19:35.847Z,6.75
2019-03-15T16:22:05.566Z,6.74
2019-03-15T16:24:34.957Z,6.82
2019-03-15T16:27:04.463Z,6.88
2019-03-15T16:29:36.877Z,6.90
2019-03-15T16:32:06.291Z,6.92
2019-03-15T16:34:35.667Z,6.93
2019-03-15T16:37:08.246Z,6.96
2019-03-15T16:39:37.669Z,7.00
2019-03-15T16:42:08.754Z,6.97
2019-03-15T16:47:13.921Z,6.82
2019-03-15T16:52:29.111Z,6.71
2019-03-15T16:54:58.748Z,6.65
2019-03-15T16:57:28.292Z,6.63
2019-03-15T16:59:57.929Z,6.59
2019-03-15T17:02:30.554Z,6.61
2019-03-15T17:05:00.071Z,6.58
2019-03-15T17:07:29.772Z,6.55
2019-03-15T17:09:59.192Z,6.49
2019-03-15T17:12:28.847Z,6.45
2019-03-15T17:14:58.422Z,6.40
2019-03-15T17:17:27.854Z,6.35
2019-03-15T17:19:57.333Z,6.30
2019-03-15T17:25:01.684Z,6.24
2019-03-15T17:27:50.206Z,6.24
2019-03-15T17:30:31.603Z,6.21
2019-03-15T17:33:01.490Z,6.18
2019-03-15T17:35:30.943Z,6.13
2019-03-15T17:38:00.439Z,6.11
2019-03-15T17:40:30.014Z,6.10
2019-03-15T17:43:02.066Z,6.06
2019-03-15T17:45:31.979Z,6.06
2019-03-15T17:48:01.438Z,6.03
2019-03-15T17:50:31.199Z,6.02
2019-03-15T17:53:03.144Z,6.02
2019-03-15T17:58:07.338Z,5.97
2019-03-15T18:03:21.657Z,5.95
2019-03-15T18:05:49.591Z,5.93
2019-03-15T18:08:18.972Z,5.93
2019-03-15T18:10:48.852Z,5.93
2019-03-15T18:13:18.242Z,5.91
2019-03-15T18:15:47.657Z,5.92
2019-03-15T18:20:52.179Z,5.94
2019-03-15T18:23:21.683Z,5.95
2019-03-15T18:25:51.145Z,5.93
2019-03-15T18:28:20.606Z,5.90
2019-03-15T18:30:50.901Z,5.85
2019-03-15T18:33:20.295Z,5.83
2019-03-15T18:35:49.695Z,5.83
2019-03-15T18:38:19.094Z,5.81
2019-03-15T18:40:48.501Z,5.80
2019-03-15T18:43:17.896Z,5.78
2019-03-15T18:45:47.324Z,5.79
2019-03-15T18:48:16.854Z,5.78
2019-03-15T18:50:46.281Z,5.80
2019-03-15T18:55:50.453Z,5.75
2019-03-15T19:01:00.405Z,5.75
2019-03-15T19:03:29.862Z,5.72
2019-03-15T19:05:59.379Z,5.69
2019-03-15T19:08:29.084Z,5.70
2019-03-15T19:11:05.032Z,5.66
2019-03-15T19:13:34.593Z,5.65
2019-03-15T19:16:04.282Z,5.61
2019-03-15T19:18:33.744Z,5.59
2019-03-15T19:21:03.434Z,5.58
2019-03-15T19:23:32.909Z,5.54
2019-03-15T19:26:02.320Z,5.53
2019-03-15T19:28:32.007Z,5.46
2019-03-15T19:31:20.548Z,5.45
2019-03-15T19:34:01.170Z,5.44
2019-03-15T19:36:31.555Z,5.39
2019-03-15T19:39:01.049Z,5.37
2019-03-15T19:44:05.931Z,5.34
2019-03-15T19:46:35.431Z,5.33
2019-03-15T19:49:05.206Z,5.30
2019-03-15T19:51:34.564Z,5.29
2019-03-15T19:54:04.290Z,5.23
2019-03-15T19:56:33.720Z,5.18
2019-03-15T19:59:03.187Z,5.15
2019-03-15T20:01:32.590Z,5.14
2019-03-15T20:04:21.464Z,5.11
2019-03-15T20:06:51.162Z,5.07
2019-03-15T20:09:20.959Z,4.97
2019-03-15T20:11:50.462Z,4.95
2019-03-15T20:14:19.866Z,4.91
2019-03-15T20:16:49.283Z,4.79
2019-03-15T20:19:18.681Z,4.81
2019-03-15T20:22:07.090Z,4.79
2019-03-15T20:27:30.416Z,4.74
2019-03-15T20:29:59.917Z,4.71
2019-03-15T20:32:29.372Z,4.72
2019-03-15T20:34:59.031Z,4.69
2019-03-15T20:37:49.141Z,4.59
2019-03-15T20:40:18.559Z,4.56
2019-03-15T20:42:47.996Z,4.52
2019-03-15T20:47:52.225Z,4.52
2019-03-15T20:50:21.654Z,4.50
2019-03-15T20:52:51.068Z,4.40
2019-03-15T20:55:20.486Z,4.35
2019-03-15T20:57:50.118Z,4.27
2019-03-15T21:00:19.746Z,4.21
2019-03-15T21:02:49.201Z,4.11
2019-03-15T21:05:18.783Z,4.07
2019-03-15T21:07:48.171Z,4.06
2019-03-15T21:15:40.772Z,3.89
2019-03-15T21:18:10.322Z,3.82
2019-03-15T21:20:43.116Z,3.81
2019-03-15T21:23:12.540Z,3.81
2019-03-15T21:25:42.201Z,3.73
2019-03-15T21:28:11.554Z,3.70
2019-03-15T21:30:48.256Z,3.68
2019-03-15T21:33:12.408Z,3.70
2019-03-15T21:35:41.852Z,3.70
2019-03-15T21:38:12.930Z,3.67
2019-03-15T21:40:42.378Z,3.66
2019-03-15T21:43:11.902Z,3.66
2019-03-15T21:45:41.308Z,3.70
2019-03-15T21:50:46.350Z,3.76
2019-03-15T21:55:57.301Z,3.75
2019-03-15T21:58:26.910Z,3.69
2019-03-15T22:01:02.381Z,3.69
2019-03-15T22:03:28.210Z,3.66
2019-03-15T22:05:57.669Z,3.72
2019-03-15T22:08:27.180Z,3.73
2019-03-15T22:10:56.689Z,3.70
2019-03-15T22:13:45.084Z,3.71
2019-03-15T22:16:14.486Z,3.77
2019-03-15T22:18:43.885Z,3.81
2019-03-15T22:21:13.351Z,3.86
2019-03-15T22:23:42.929Z,3.89
2019-03-15T22:26:12.334Z,4.00
2019-03-15T22:28:41.807Z,3.99
2019-03-15T22:31:16.560Z,3.97
2019-03-15T22:33:42.611Z,3.97
2019-03-15T22:36:31.117Z,4.00
2019-03-15T22:39:11.914Z,3.98
2019-03-15T22:41:41.646Z,4.01
2019-03-15T22:44:30.242Z,4.07
2019-03-15T22:47:11.573Z,4.07
2019-03-15T22:49:41.103Z,4.07
2019-03-15T22:52:29.644Z,4.13
2019-03-15T22:58:00.944Z,4.18
2019-03-15T23:00:36.166Z,4.20
2019-03-15T23:03:06.034Z,4.22
2019-03-15T23:05:36.972Z,4.17
2019-03-15T23:11:00.674Z,4.09
2019-03-15T23:13:30.723Z,4.00
2019-03-15T23:16:19.092Z,4.00
2019-03-15T23:18:48.743Z,4.00
2019-03-15T23:21:18.113Z,3.97
2019-03-15T23:23:47.480Z,3.84
2019-03-15T23:26:16.886Z,3.89
2019-03-15T23:28:47.392Z,3.87
2019-03-15T23:31:17.876Z,3.87
2019-03-15T23:33:47.363Z,3.83
2019-03-15T23:36:16.782Z,3.83
2019-03-15T23:38:46.146Z,3.79
2019-03-15T23:41:26.838Z,3.75
2019-03-15T23:43:56.310Z,3.75
2019-03-15T23:46:25.819Z,3.70
2019-03-15T23:48:55.223Z,3.72
2019-03-15T23:51:24.783Z,3.69
2019-03-15T23:53:54.162Z,3.66
2019-03-15T23:56:23.668Z,3.59
2019-03-15T23:58:53.078Z,3.56
